createdAt,value
2022-11-26T01:38:43.236Z,87.30
2022-11-26T01:46:48.949Z,86.60
2022-11-26T01:54:57.423Z,86.10
2022-11-26T02:03:03.468Z,86.70
2022-11-26T02:11:23.227Z,87.50
2022-11-26T02:19:58.074Z,87.80
2022-11-26T02:28:27.891Z,86.90
2022-11-26T02:36:41.728Z,86.30
2022-11-26T02:44:49.565Z,86.40
2022-11-26T02:53:00.780Z,86.10
2022-11-26T03:01:10.246Z,85.50
2022-11-26T03:09:20.281Z,85.60
2022-11-26T03:17:25.664Z,85.70
2022-11-26T03:25:34.142Z,85.60
2022-11-26T03:33:39.509Z,86.20
2022-11-26T03:41:47.456Z,86.20
2022-11-26T03:49:52.874Z,86.60
2022-11-26T03:58:00.789Z,86.70
2022-11-26T04:06:06.113Z,86.60
2022-11-26T04:14:14.000Z,86.70
2022-11-26T04:22:19.342Z,86.20
2022-11-26T04:30:29.828Z,86.30
2022-11-26T04:38:35.279Z,85.60
2022-11-26T04:46:43.178Z,86.60
2022-11-26T04:54:48.507Z,86.70
2022-11-26T05:02:56.540Z,87.10
2022-11-26T05:11:03.441Z,87.10
2022-11-26T05:19:11.509Z,87.10
2022-11-26T05:27:18.910Z,86.90
2022-11-26T05:35:26.934Z,87.00
2022-11-26T05:43:32.527Z,86.80
2022-11-26T05:51:40.595Z,87.10
2022-11-26T05:59:47.117Z,86.60
2022-11-26T06:07:55.205Z,87.00
2022-11-26T06:16:00.598Z,87.20
2022-11-26T06:24:09.405Z,87.60
2022-11-26T06:32:14.734Z,87.80
2022-11-26T06:40:24.298Z,87.90
2022-11-26T06:48:29.656Z,87.50
2022-11-26T06:56:38.101Z,87.40
2022-11-26T07:04:43.554Z,86.90
2022-11-26T07:12:51.454Z,86.50
2022-11-26T07:20:57.026Z,85.80
2022-11-26T07:29:04.943Z,85.40
2022-11-26T08:12:00.952Z,83.80
2022-11-26T08:20:06.707Z,83.30
2022-11-26T08:28:15.119Z,82.60
2022-11-26T08:36:23.390Z,82.60
2022-11-26T08:44:31.976Z,82.40
2022-11-26T08:52:37.566Z,83.00
2022-11-26T09:00:45.551Z,82.60
2022-11-26T09:09:03.454Z,83.60
2022-11-26T09:17:11.818Z,83.10
2022-11-26T09:25:17.208Z,83.00
2022-11-26T09:33:25.129Z,82.50
2022-11-26T09:41:43.862Z,81.60
2022-11-26T09:50:01.959Z,81.10
2022-11-26T09:58:14.953Z,80.60
2022-11-26T10:06:33.269Z,79.90
2022-11-26T10:14:53.780Z,79.30
2022-11-26T10:23:07.066Z,78.80
2022-11-26T10:31:19.634Z,77.60
2022-11-26T10:39:27.643Z,76.10
2022-11-26T10:47:34.760Z,75.60
2022-11-26T10:55:46.494Z,75.50
2022-11-26T11:04:10.274Z,74.10
2022-11-26T11:12:21.153Z,74.10
2022-11-26T11:20:34.047Z,75.40
2022-11-26T11:28:43.465Z,75.50
2022-11-26T11:37:02.432Z,75.10
2022-11-26T11:45:25.589Z,74.20
2022-11-26T11:53:42.056Z,72.30
2022-11-26T12:02:03.371Z,72.60
2022-11-26T12:10:15.267Z,72.60
2022-11-26T12:18:34.205Z,74.10
2022-11-26T12:26:45.296Z,75.00
2022-11-26T12:34:56.282Z,75.50
2022-11-26T12:43:06.780Z,76.60
2022-11-26T12:51:32.381Z,77.10
2022-11-26T12:59:45.057Z,77.20
2022-11-26T13:08:14.089Z,78.20
2022-11-26T13:16:34.987Z,79.00
2022-11-26T13:25:07.006Z,78.70
2022-11-26T13:33:55.813Z,78.50
2022-11-26T13:42:32.952Z,79.90
2022-11-26T13:50:45.506Z,79.60
2022-11-26T13:58:57.896Z,79.70
2022-11-26T14:07:24.084Z,80.90
2022-11-26T14:15:59.033Z,80.80
2022-11-26T14:24:06.956Z,80.00
2022-11-26T14:32:17.838Z,79.90
2022-11-26T14:40:26.277Z,79.60
2022-11-26T14:48:37.044Z,80.00
2022-11-26T14:56:46.364Z,79.60
2022-11-26T15:05:04.061Z,79.40
2022-11-26T15:13:15.288Z,80.40
2022-11-26T15:21:27.095Z,79.90
2022-11-26T15:29:35.578Z,79.60
2022-11-26T15:37:48.274Z,79.50
2022-11-26T15:45:56.305Z,79.40
2022-11-26T15:54:06.922Z,79.40
2022-11-26T16:02:21.351Z,79.40
2022-11-26T16:10:35.651Z,80.20
2022-11-26T16:18:45.363Z,80.20
2022-11-26T16:27:01.367Z,81.20
2022-11-26T16:35:29.856Z,81.00
2022-11-26T16:43:35.202Z,81.80
2022-11-26T16:51:40.540Z,82.30
2022-11-26T16:59:52.655Z,81.30
2022-11-26T17:08:01.298Z,80.80
2022-11-26T17:16:16.418Z,82.00
2022-11-26T17:24:24.676Z,82.40
2022-11-26T17:32:36.359Z,83.20
2022-11-26T17:40:41.665Z,83.60
2022-11-26T17:48:49.996Z,83.20
2022-11-26T17:56:56.336Z,82.60
2022-11-26T18:05:05.173Z,83.00
2022-11-26T18:13:10.720Z,82.50
2022-11-26T18:21:18.796Z,82.50
2022-11-26T18:29:24.332Z,82.00
2022-11-26T18:37:32.840Z,82.20
2022-11-26T18:45:38.626Z,81.50
2022-11-26T18:53:47.748Z,81.40
2022-11-26T19:01:53.127Z,80.80
2022-11-26T19:10:01.060Z,81.50
2022-11-26T19:18:06.516Z,81.30
2022-11-26T19:26:14.868Z,80.70
2022-11-26T19:34:20.208Z,81.00
2022-11-26T19:42:30.111Z,81.40
2022-11-26T19:50:35.485Z,82.70
2022-11-26T19:58:43.722Z,82.30
2022-11-26T20:06:49.077Z,82.30
2022-11-26T20:14:57.199Z,81.80
2022-11-26T20:23:02.573Z,81.70
2022-11-26T20:31:11.211Z,81.30
2022-11-26T20:39:18.574Z,81.40
2022-11-26T20:47:28.067Z,81.40
2022-11-26T20:55:33.497Z,81.50
2022-11-26T21:03:41.421Z,81.20
2022-11-26T21:11:46.745Z,81.30
2022-11-26T21:19:55.080Z,81.30
2022-11-26T21:28:00.546Z,81.80
2022-11-26T21:36:15.375Z,81.70
2022-11-26T21:44:20.931Z,81.50
2022-11-26T21:52:28.938Z,81.90
2022-11-26T22:00:34.367Z,81.60
2022-11-26T22:08:44.035Z,81.70
2022-11-26T22:16:51.011Z,81.90
2022-11-26T22:24:58.985Z,81.90
2022-11-26T22:33:07.586Z,81.60
2022-11-26T22:41:16.930Z,82.40
2022-11-26T22:49:24.479Z,83.10
2022-11-26T22:57:32.445Z,83.40
2022-11-26T23:05:41.565Z,83.70
2022-11-26T23:13:51.577Z,83.60
2022-11-26T23:22:00.087Z,83.70
2022-11-26T23:30:13.593Z,83.90
2022-11-26T23:38:25.712Z,84.00
2022-11-26T23:46:35.850Z,85.20
2022-11-26T23:54:45.060Z,85.80
